Time;durP1;ratioP1;P1;durP2;ratioP2;P2;SDS_P1;SDS_P2;PMS_P1;PMS_P2;Temp;Humidity;BMP_temperature;BMP_pressure;BME280_temperature;BME280_humidity;BME280_pressure;Samples;Min_cycle;Max_cycle;Signal;HPM_P1;HPM_P2
2021/01/31 00:01:41;;;;;;;;;;;;;;;-0.34;100.00;98239.16;5036878;28;19956;-83
2021/01/31 00:04:08;;;;;;;;;;;;;;;-0.33;100.00;98243.50;5004310;28;19924;-83
2021/01/31 00:06:35;;;;;;;;;;;;;;;-0.27;100.00;98248.28;5036809;28;19932;-83
2021/01/31 00:09:01;;;;;;;;;;;;;;;-0.23;100.00;98242.84;5037084;28;19925;-82
2021/01/31 00:11:28;;;;;;;;;;;;;;;-0.21;100.00;98254.22;5054303;28;19925;-83
2021/01/31 00:13:55;;;;;;;;;;;;;;;-0.25;100.00;98250.66;5036619;28;20329;-83
2021/01/31 00:16:21;;;;;;;;;;;;;;;-0.33;100.00;98251.72;5053571;28;19929;-83
2021/01/31 00:18:48;;;;;;;;;;;;;;;-0.39;100.00;98259.50;5053110;28;19933;-83
2021/01/31 00:21:15;;;;;;;;;;;;;;;-0.40;100.00;98259.88;5036801;28;19932;-83
2021/01/31 00:23:42;;;;;;;;;;;;;;;-0.45;100.00;98262.91;5036239;28;19924;-83
2021/01/31 00:26:17;;;;;;;;;;;;;;;-0.51;100.00;98259.72;5054233;28;19931;-82
2021/01/31 00:28:44;;;;;;;;;;;;;;;-0.51;100.00;98256.16;5036527;28;19925;-83
2021/01/31 00:31:10;;;;;;;;;;;;;;;-0.52;100.00;98265.56;5053353;28;20380;-82
2021/01/31 00:33:37;;;;;;;;;;;;;;;-0.52;100.00;98266.38;5052872;28;19932;-83
2021/01/31 00:36:04;;;;;;;;;;;;;;;-0.52;100.00;98273.81;5053174;28;19931;-83
2021/01/31 00:38:30;;;;;;;;;;;;;;;-0.49;100.00;98273.06;5036481;28;19925;-83
2021/01/31 00:40:57;;;;;;;;;;;;;;;-0.45;100.00;98280.19;5035978;28;20394;-83
2021/01/31 00:43:25;;;;;;;;;;;;;;;-0.51;100.00;98286.34;5019972;28;19936;-83
2021/01/31 00:45:53;;;;;;;;;;;;;;;-0.46;100.00;98286.03;5052825;28;20368;-83
2021/01/31 00:48:19;;;;;;;;;;;;;;;-0.47;100.00;98284.47;5036410;28;20011;-83
2021/01/31 00:50:46;;;;;;;;;;;;;;;-0.40;100.00;98292.81;5069642;28;19932;-83
2021/01/31 00:53:18;;;;;;;;;;;;;;;-0.36;100.00;98293.63;5036714;28;20382;-82
2021/01/31 00:55:50;;;;;;;;;;;;;;;-0.38;100.00;98307.72;5037327;28;19924;-82
2021/01/31 00:58:26;;;;;;;;;;;;;;;-0.40;100.00;98292.81;5073539;28;19929;-82
2021/01/31 01:00:54;;;;;;;;;;;;;;;-0.40;100.00;98292.81;5040448;28;20355;-82
2021/01/31 01:03:22;;;;;;;;;;;;;;;-0.42;100.00;98295.91;5040149;28;19974;-82
2021/01/31 01:05:55;;;;;;;;;;;;;;;-0.39;100.00;98292.44;5040169;28;20031;-83
2021/01/31 01:08:22;;;;;;;;;;;;;;;-0.43;100.00;98299.84;5056997;28;19931;-82
2021/01/31 01:10:49;;;;;;;;;;;;;;;-0.46;100.00;98310.75;5057935;28;19925;-82
2021/01/31 01:13:15;;;;;;;;;;;;;;;-0.47;100.00;98304.47;5040411;28;19933;-83
2021/01/31 01:15:42;;;;;;;;;;;;;;;-0.44;100.00;98306.47;5056945;28;19931;-83
2021/01/31 01:18:09;;;;;;;;;;;;;;;-0.45;100.00;98307.63;5040244;28;19928;-83
2021/01/31 01:20:36;;;;;;;;;;;;;;;-0.47;100.00;98314.66;5057668;28;19925;-83
2021/01/31 01:23:02;;;;;;;;;;;;;;;-0.47;100.00;98300.94;5039968;28;19979;-83
2021/01/31 01:25:29;;;;;;;;;;;;;;;-0.47;100.00;98298.19;5039948;28;19960;-82
2021/01/31 01:27:56;;;;;;;;;;;;;;;-0.44;100.00;98283.75;5056481;28;19979;-83
2021/01/31 01:30:25;;;;;;;;;;;;;;;-0.44;100.00;98291.97;5056548;28;19932;-82
2021/01/31 01:32:53;;;;;;;;;;;;;;;-0.42;100.00;98289.63;5057243;28;20016;-82
2021/01/31 01:35:20;;;;;;;;;;;;;;;-0.37;100.00;98292.06;5056583;28;19925;-82
2021/01/31 01:37:47;;;;;;;;;;;;;;;-0.40;100.00;98293.59;5073232;28;20023;-82
2021/01/31 01:40:29;;;;;;;;;;;;;;;-0.41;100.00;98291.22;5039573;28;19931;-84
2021/01/31 01:42:56;;;;;;;;;;;;;;;-0.24;100.00;98290.66;5056205;28;20015;-83
2021/01/31 01:45:25;;;;;;;;;;;;;;;-0.21;100.00;98295.41;5056120;28;19986;-84
2021/01/31 01:47:54;;;;;;;;;;;;;;;-0.26;100.00;98301.25;5072484;28;19971;-84
2021/01/31 01:50:29;;;;;;;;;;;;;;;-0.25;100.00;98297.34;5039262;28;19932;-84
2021/01/31 01:52:57;;;;;;;;;;;;;;;-0.27;100.00;98291.41;5072473;28;19929;-84
2021/01/31 01:55:25;;;;;;;;;;;;;;;-0.30;100.00;98283.91;5055687;28;20303;-84
2021/01/31 01:57:56;;;;;;;;;;;;;;;-0.34;100.00;98280.34;5039376;28;20335;-84
2021/01/31 02:00:23;;;;;;;;;;;;;;;-0.38;100.00;98280.28;5022643;28;19925;-84
2021/01/31 02:02:56;;;;;;;;;;;;;;;-0.36;100.00;98286.19;5072273;28;19925;-84
2021/01/31 02:05:22;;;;;;;;;;;;;;;-0.31;100.00;98285.09;5055731;28;19925;-83
2021/01/31 02:07:49;;;;;;;;;;;;;;;-0.36;100.00;98277.16;5055310;28;19994;-84
2021/01/31 02:10:17;;;;;;;;;;;;;;;-0.25;100.00;98278.91;5039123;28;19928;-84
2021/01/31 02:12:44;;;;;;;;;;;;;;;-0.25;100.00;98267.94;5072229;28;20013;-84
2021/01/31 02:15:13;;;;;;;;;;;;;;;-0.27;100.00;98277.69;5055647;28;19925;-84
2021/01/31 02:17:58;;;;;;;;;;;;;;;-0.30;100.00;98271.00;5056502;28;19947;-83
2021/01/31 02:20:43;;;;;;;;;;;;;;;-0.31;100.00;98271.38;5055248;28;20019;-84
2021/01/31 02:23:21;;;;;;;;;;;;;;;-0.35;100.00;98262.31;5055621;28;19925;-84
2021/01/31 02:25:55;;;;;;;;;;;;;;;-0.36;100.00;98271.69;5038645;28;19925;-84
2021/01/31 02:28:40;;;;;;;;;;;;;;;-0.36;100.00;98264.25;5055376;28;19925;-84
2021/01/31 02:31:20;;;;;;;;;;;;;;;-0.31;100.00;98268.63;5038944;28;19925;-84
2021/01/31 02:33:53;;;;;;;;;;;;;;;-0.33;100.00;98259.97;5072086;28;19929;-84
2021/01/31 02:36:32;;;;;;;;;;;;;;;-0.39;100.00;98272.41;5038581;28;19932;-84
2021/01/31 02:39:19;;;;;;;;;;;;;;;-0.40;100.00;98273.59;5055217;28;19933;-83
2021/01/31 02:41:56;;;;;;;;;;;;;;;-0.48;100.00;98271.91;5028360;28;20017;-84
2021/01/31 02:44:23;;;;;;;;;;;;;;;-0.54;100.00;98267.88;5038509;28;19925;-84
2021/01/31 02:47:01;;;;;;;;;;;;;;;-0.61;100.00;98254.88;5055043;28;19924;-84
2021/01/31 02:49:33;;;;;;;;;;;;;;;-0.67;100.00;98248.13;5071920;28;20436;-84
2021/01/31 02:52:03;;;;;;;;;;;;;;;-0.65;100.00;98258.72;5038258;28;20272;-83
2021/01/31 02:54:38;;;;;;;;;;;;;;;-0.67;100.00;98258.28;5037968;28;19924;-84
2021/01/31 02:57:08;;;;;;;;;;;;;;;-0.67;100.00;98264.59;5054817;28;19964;-83
2021/01/31 02:59:50;;;;;;;;;;;;;;;-0.69;100.00;98264.16;5071211;28;19932;-83
2021/01/31 03:02:20;;;;;;;;;;;;;;;-0.74;100.00;98260.91;5038190;28;20442;-83
2021/01/31 03:05:00;;;;;;;;;;;;;;;-0.78;100.00;98260.06;5038067;28;19925;-83
2021/01/31 03:07:31;;;;;;;;;;;;;;;-0.79;100.00;98261.25;5054653;28;20260;-83
2021/01/31 03:10:05;;;;;;;;;;;;;;;-0.80;100.00;98259.63;5054571;28;19925;-83
2021/01/31 03:12:36;;;;;;;;;;;;;;;-0.76;100.00;98264.03;5055860;28;19992;-83
2021/01/31 03:15:07;;;;;;;;;;;;;;;-0.77;100.00;98273.41;5037734;28;19931;-83
2021/01/31 03:17:42;;;;;;;;;;;;;;;-0.76;100.00;98274.22;5037962;28;20304;-83
2021/01/31 03:20:19;;;;;;;;;;;;;;;-0.75;100.00;98281.28;5070583;28;19925;-83
2021/01/31 03:23:12;;;;;;;;;;;;;;;-0.79;100.00;98280.44;5037933;28;19928;-83
2021/01/31 03:25:42;;;;;;;;;;;;;;;-0.80;100.00;98273.34;5052382;28;19924;-83
2021/01/31 03:28:09;;;;;;;;;;;;;;;-0.84;100.00;98272.53;5038071;28;20371;-83
2021/01/31 03:30:36;;;;;;;;;;;;;;;-0.84;100.00;98272.53;5054211;28;19935;-83
2021/01/31 03:33:07;;;;;;;;;;;;;;;-0.85;100.00;98259.97;5055386;28;19947;-83
2021/01/31 03:35:36;;;;;;;;;;;;;;;-0.89;100.00;98259.09;5054485;28;19932;-83
2021/01/31 03:38:18;;;;;;;;;;;;;;;-0.92;100.00;98259.84;5054017;28;19925;-83
2021/01/31 03:40:47;;;;;;;;;;;;;;;-0.91;100.00;98255.97;5054246;28;19929;-83
2021/01/31 03:43:14;;;;;;;;;;;;;;;-0.93;100.00;98259.06;5037239;28;19925;-83
2021/01/31 03:45:44;;;;;;;;;;;;;;;-0.97;100.00;98260.94;5053813;28;19968;-84
2021/01/31 03:48:23;;;;;;;;;;;;;;;-0.97;100.00;98251.94;5037315;28;19925;-84
2021/01/31 03:50:50;;;;;;;;;;;;;;;-0.98;100.00;98248.41;5070279;28;19925;-83
2021/01/31 03:53:16;;;;;;;;;;;;;;;-1.03;100.00;98242.44;5037318;28;19931;-83
2021/01/31 03:55:43;;;;;;;;;;;;;;;-1.09;100.00;98230.22;5087100;28;19996;-83
2021/01/31 03:58:12;;;;;;;;;;;;;;;-1.14;100.00;98228.56;5054643;28;20462;-84
2021/01/31 04:00:50;;;;;;;;;;;;;;;-1.13;100.00;98230.16;5037472;28;19925;-83
2021/01/31 04:03:43;;;;;;;;;;;;;;;-1.16;100.00;98238.31;5037154;28;20335;-83
2021/01/31 04:06:12;;;;;;;;;;;;;;;-1.17;100.00;98247.69;5053569;28;19931;-83
2021/01/31 04:08:40;;;;;;;;;;;;;;;-1.18;100.00;98246.13;5053589;28;19975;-83
2021/01/31 04:11:06;;;;;;;;;;;;;;;-1.12;100.00;98244.66;5053813;28;19932;-83
2021/01/31 04:13:34;;;;;;;;;;;;;;;-1.08;100.00;98240.00;5053254;28;19925;-83
2021/01/31 04:16:03;;;;;;;;;;;;;;;-1.11;100.00;98229.78;5070083;28;19924;-84
2021/01/31 04:18:30;;;;;;;;;;;;;;;-1.11;100.00;98224.28;5052955;28;19929;-84
2021/01/31 04:20:57;;;;;;;;;;;;;;;-0.99;100.00;98235.88;5020667;28;19932;-83
2021/01/31 04:23:23;;;;;;;;;;;;;;;-1.00;100.00;98237.00;5053350;28;20394;-84
2021/01/31 04:25:51;;;;;;;;;;;;;;;-0.95;100.00;98241.38;5053583;28;19924;-83
2021/01/31 04:28:19;;;;;;;;;;;;;;;-0.97;100.00;98230.00;5053001;28;20371;-83
2021/01/31 04:30:49;;;;;;;;;;;;;;;-0.90;100.00;98225.44;5068864;28;19924;-83
2021/01/31 04:33:16;;;;;;;;;;;;;;;-0.94;100.00;98223.78;5036342;28;19925;-83
2021/01/31 04:35:42;;;;;;;;;;;;;;;-0.96;100.00;98231.59;5053254;28;19932;-83
2021/01/31 04:38:09;;;;;;;;;;;;;;;-0.95;100.00;98228.47;5036483;28;19964;-84
2021/01/31 04:40:36;;;;;;;;;;;;;;;-0.96;100.00;98232.38;5053978;28;19936;-83
2021/01/31 04:43:05;;;;;;;;;;;;;;;-0.93;100.00;98230.84;5036439;28;19925;-83
2021/01/31 04:45:33;;;;;;;;;;;;;;;-0.94;100.00;98223.78;5052830;28;19974;-83
2021/01/31 04:48:15;;;;;;;;;;;;;;;-0.95;100.00;98223.00;5052837;28;19932;-83
2021/01/31 04:50:43;;;;;;;;;;;;;;;-0.93;100.00;98212.44;5052928;28;19932;-83
2021/01/31 04:53:18;;;;;;;;;;;;;;;-0.91;100.00;98223.81;5053929;28;20383;-84
2021/01/31 04:56:05;;;;;;;;;;;;;;;-0.93;100.00;98208.91;5035895;28;19929;-83
2021/01/31 04:58:40;;;;;;;;;;;;;;;-0.91;100.00;98203.84;5053274;28;19932;-83
2021/01/31 05:01:16;;;;;;;;;;;;;;;-0.89;100.00;98201.53;5052544;28;20569;-84
2021/01/31 05:03:48;;;;;;;;;;;;;;;-0.94;100.00;98197.13;5069829;28;19947;-83
2021/01/31 05:06:17;;;;;;;;;;;;;;;-0.93;100.00;98197.94;5070174;28;19929;-83
2021/01/31 05:08:48;;;;;;;;;;;;;;;-0.86;100.00;98198.03;5069408;28;19925;-83
2021/01/31 05:11:15;;;;;;;;;;;;;;;-0.88;100.00;98200.38;5036397;28;19928;-83
2021/01/31 05:13:49;;;;;;;;;;;;;;;-0.92;100.00;98194.03;5036488;28;19967;-83
2021/01/31 05:16:16;;;;;;;;;;;;;;;-0.92;100.00;98199.50;5036333;28;19979;-83
2021/01/31 05:18:45;;;;;;;;;;;;;;;-0.91;100.00;98190.16;5069706;28;19924;-83
2021/01/31 05:21:14;;;;;;;;;;;;;;;-0.94;100.00;98186.16;5069412;28;20372;-84
2021/01/31 05:23:43;;;;;;;;;;;;;;;-0.91;100.00;98188.19;5052255;28;20013;-83
2021/01/31 05:26:11;;;;;;;;;;;;;;;-0.88;100.00;98187.44;5069062;28;19925;-83
2021/01/31 05:28:39;;;;;;;;;;;;;;;-0.87;100.00;98185.50;5052643;28;20437;-83
2021/01/31 05:31:10;;;;;;;;;;;;;;;-0.87;100.00;98180.81;5035547;28;19929;-83
2021/01/31 05:33:46;;;;;;;;;;;;;;;-0.86;100.00;98170.63;5052608;28;19929;-83
2021/01/31 05:36:16;;;;;;;;;;;;;;;-0.85;100.00;98290.91;5053489;28;19925;-83
2021/01/31 05:38:44;;;;;;;;;;;;;;;-0.84;100.00;98294.47;5052607;28;19939;-83
2021/01/31 05:41:29;;;;;;;;;;;;;;;-0.84;100.00;98294.47;5053415;28;20019;-83
2021/01/31 05:43:55;;;;;;;;;;;;;;;-0.82;100.00;98294.91;5039310;28;20454;-83
2021/01/31 05:46:24;;;;;;;;;;;;;;;-0.85;100.00;98290.16;5055927;28;19925;-83
2021/01/31 05:48:50;;;;;;;;;;;;;;;-0.86;100.00;98283.06;5056111;28;19925;-83
2021/01/31 05:51:18;;;;;;;;;;;;;;;-0.90;100.00;98285.75;5073032;28;19924;-83
2021/01/31 05:53:45;;;;;;;;;;;;;;;-0.87;100.00;98285.03;5056846;28;19929;-83
2021/01/31 05:56:15;;;;;;;;;;;;;;;-0.83;100.00;98290.53;5039970;28;19925;-83
2021/01/31 05:58:41;;;;;;;;;;;;;;;-0.84;100.00;98280.75;5039081;28;19925;-83
2021/01/31 06:01:10;;;;;;;;;;;;;;;-0.86;100.00;98274.81;5055818;28;19925;-83
2021/01/31 06:03:37;;;;;;;;;;;;;;;-0.89;100.00;98275.56;5039321;28;19925;-83
2021/01/31 06:06:10;;;;;;;;;;;;;;;-0.88;100.00;98260.72;5056880;28;19924;-84
2021/01/31 06:08:38;;;;;;;;;;;;;;;-0.85;100.00;98265.47;5055372;28;19925;-84
2021/01/31 06:11:07;;;;;;;;;;;;;;;-0.85;100.00;98260.75;5072162;28;20375;-84
2021/01/31 06:13:35;;;;;;;;;;;;;;;-0.82;100.00;98267.47;5055308;28;19925;-84
2021/01/31 06:16:15;;;;;;;;;;;;;;;-0.82;100.00;98270.22;5055598;28;19925;-83
2021/01/31 06:18:45;;;;;;;;;;;;;;;-0.80;100.00;98276.91;5072983;28;20323;-84
2021/01/31 06:21:15;;;;;;;;;;;;;;;-0.81;100.00;98269.03;5055088;28;20299;-83
2021/01/31 06:23:41;;;;;;;;;;;;;;;-0.81;100.00;98255.31;5055560;28;20342;-84
2021/01/31 06:26:27;;;;;;;;;;;;;;;-0.70;100.00;98259.03;5040322;28;19925;-84
2021/01/31 06:28:59;;;;;;;;;;;;;;;-0.73;100.00;98257.84;5055017;28;19936;-84
2021/01/31 06:31:40;;;;;;;;;;;;;;;-0.74;100.00;98258.97;5039891;28;19928;-83
2021/01/31 06:34:08;;;;;;;;;;;;;;;-0.77;100.00;98256.97;5072018;28;20336;-83
2021/01/31 06:36:48;;;;;;;;;;;;;;;-0.77;100.00;98253.41;5022531;28;19948;-84
2021/01/31 06:39:17;;;;;;;;;;;;;;;-0.78;100.00;98254.59;5056261;28;19924;-83
2021/01/31 06:42:02;;;;;;;;;;;;;;;-0.83;100.00;98252.16;5056031;28;19948;-83
2021/01/31 06:44:45;;;;;;;;;;;;;;;-0.90;100.00;98241.88;5057153;28;19932;-83
2021/01/31 06:47:45;;;;;;;;;;;;;;;-0.88;100.00;98244.25;5072293;28;19932;-83
2021/01/31 06:50:28;;;;;;;;;;;;;;;-0.91;100.00;98239.50;5021929;28;19955;-81
2021/01/31 06:52:54;;;;;;;;;;;;;;;-0.99;100.00;98237.81;5038380;28;19925;-82
2021/01/31 06:55:39;;;;;;;;;;;;;;;-1.03;100.00;98242.44;5054461;28;19935;-83
2021/01/31 06:58:20;;;;;;;;;;;;;;;-1.07;100.00;98238.84;5071856;28;20357;-82
2021/01/31 07:00:49;;;;;;;;;;;;;;;-1.01;100.00;98229.16;5055880;28;20368;-82
2021/01/31 07:03:35;;;;;;;;;;;;;;;-0.99;100.00;98232.31;5054986;28;20368;-82
2021/01/31 07:06:25;;;;;;;;;;;;;;;-0.93;100.00;98242.63;5055875;28;19932;-81
2021/01/31 07:09:15;;;;;;;;;;;;;;;-1.00;100.00;98230.75;5037860;28;19925;-82
2021/01/31 07:11:44;;;;;;;;;;;;;;;-1.02;100.00;98224.81;5055548;28;20352;-82
2021/01/31 07:14:25;;;;;;;;;;;;;;;-1.07;100.00;98211.41;5054594;28;19925;-82
2021/01/31 07:16:58;;;;;;;;;;;;;;;-1.12;100.00;98211.75;5038580;28;19925;-82
2021/01/31 07:20:00;;;;;;;;;;;;;;;-1.15;100.00;98207.00;5053812;28;19925;-82
2021/01/31 07:22:33;;;;;;;;;;;;;;;-1.15;100.00;98201.53;5016524;28;20381;-82
2021/01/31 07:25:02;;;;;;;;;;;;;;;-1.17;100.00;98204.63;5033605;28;19936;-82
2021/01/31 07:27:48;;;;;;;;;;;;;;;-1.18;100.00;98196.78;5033483;28;19932;-82
2021/01/31 07:30:23;;;;;;;;;;;;;;;-1.23;100.00;98195.13;5033673;28;19925;-82
2021/01/31 07:33:08;;;;;;;;;;;;;;;-1.22;100.00;98201.38;5033997;28;19925;-82
2021/01/31 07:35:42;;;;;;;;;;;;;;;-1.19;100.00;98203.41;5033117;28;20278;-82
2021/01/31 07:38:19;;;;;;;;;;;;;;;-1.24;100.00;98201.00;5033416;28;20357;-82
2021/01/31 07:40:47;;;;;;;;;;;;;;;-1.27;100.00;98205.22;5016579;28;19929;-83
2021/01/31 07:43:16;;;;;;;;;;;;;;;-1.23;100.00;98205.31;5033462;28;19925;-82
2021/01/31 07:45:43;;;;;;;;;;;;;;;-1.19;100.00;98204.19;5017128;28;20004;-82
2021/01/31 07:48:31;;;;;;;;;;;;;;;-1.17;100.00;98204.63;5032761;28;19929;-82
2021/01/31 07:50:59;;;;;;;;;;;;;;;-1.17;100.00;98214.78;5033028;28;19947;-82
2021/01/31 07:53:36;;;;;;;;;;;;;;;-1.15;100.00;98207.00;5032821;28;20511;-82
2021/01/31 07:56:21;;;;;;;;;;;;;;;-1.09;100.00;98200.06;5040110;28;20351;-82
2021/01/31 07:58:48;;;;;;;;;;;;;;;-1.09;100.00;98198.09;5054630;28;19931;-82
2021/01/31 08:01:35;;;;;;;;;;;;;;;-1.11;100.00;98194.13;5036994;28;19928;-82
2021/01/31 08:04:17;;;;;;;;;;;;;;;-1.12;100.00;98185.13;5054555;28;19931;-82
2021/01/31 08:06:43;;;;;;;;;;;;;;;-1.04;100.00;98186.81;5053238;28;19925;-82
2021/01/31 08:09:10;;;;;;;;;;;;;;;-0.98;100.00;98185.34;5053485;28;19929;-82
2021/01/31 08:11:39;;;;;;;;;;;;;;;-0.91;100.00;98184.66;5053214;28;20019;-82
2021/01/31 08:14:08;;;;;;;;;;;;;;;-0.88;100.00;98192.16;5053233;28;19976;-82
2021/01/31 08:16:37;;;;;;;;;;;;;;;-0.84;100.00;98196.53;5053220;28;19931;-82
2021/01/31 08:19:09;;;;;;;;;;;;;;;-0.80;100.00;98213.81;5054336;28;19933;-82
2021/01/31 08:21:51;;;;;;;;;;;;;;;-0.76;100.00;98214.66;5054050;28;19929;-82
2021/01/31 08:24:38;;;;;;;;;;;;;;;-0.72;100.00;98225.69;5036470;28;20026;-82
2021/01/31 08:27:10;;;;;;;;;;;;;;;-0.67;100.00;98228.91;5042860;28;19979;-82
2021/01/31 08:29:36;;;;;;;;;;;;;;;-0.58;100.00;98237.69;5054465;28;19925;-82
2021/01/31 08:32:12;;;;;;;;;;;;;;;-0.51;100.00;98226.78;5037407;28;19925;-82
2021/01/31 08:34:57;;;;;;;;;;;;;;;-0.52;100.00;98216.19;5054073;28;19929;-82
2021/01/31 08:37:37;;;;;;;;;;;;;;;-0.48;100.00;98211.53;5053336;28;19940;-81
2021/01/31 08:40:17;;;;;;;;;;;;;;;-0.49;100.00;98213.50;5053102;28;19925;-81
2021/01/31 08:42:49;;;;;;;;;;;;;;;-0.46;100.00;98206.47;5054073;28;19988;-82
2021/01/31 08:45:15;;;;;;;;;;;;;;;-0.47;100.00;98204.91;5036332;28;20029;-82
2021/01/31 08:47:42;;;;;;;;;;;;;;;-0.51;100.00;98196.59;5086167;28;19932;-82
2021/01/31 08:50:09;;;;;;;;;;;;;;;-0.49;100.00;98202.53;5052640;28;20388;-82
2021/01/31 08:52:36;;;;;;;;;;;;;;;-0.47;100.00;98216.63;5069440;28;20012;-83
2021/01/31 08:55:04;;;;;;;;;;;;;;;-0.45;100.00;98213.53;5036159;28;19956;-82
2021/01/31 08:57:37;;;;;;;;;;;;;;;-0.43;100.00;98211.22;5069442;28;19925;-83
2021/01/31 09:00:08;;;;;;;;;;;;;;;-0.39;100.00;98198.31;5036274;28;19931;-82
2021/01/31 09:02:34;;;;;;;;;;;;;;;-0.36;100.00;98192.09;5052892;28;19924;-82
2021/01/31 09:05:12;;;;;;;;;;;;;;;-0.35;100.00;98182.69;5052730;28;19925;-82
2021/01/31 09:07:41;;;;;;;;;;;;;;;-0.29;100.00;98189.44;5035920;28;20280;-84
2021/01/31 09:10:07;;;;;;;;;;;;;;;-0.22;100.00;98184.03;5052245;28;20398;-82
2021/01/31 09:12:34;;;;;;;;;;;;;;;-0.20;100.00;98179.75;5052751;28;19925;-84
2021/01/31 09:15:09;;;;;;;;;;;;;;;-0.18;100.00;98160.16;5053636;28;19932;-85
2021/01/31 09:17:35;;;;;;;;;;;;;;;-0.18;100.00;98171.94;5054015;28;19929;-84
2021/01/31 09:20:16;;;;;;;;;;;;;;;-0.18;100.00;98158.19;5057609;28;19979;-84
2021/01/31 09:22:45;;;;;;;;;;;;;;;-0.20;100.00;98143.28;5039887;28;19932;-85
2021/01/31 09:25:13;;;;;;;;;;;;;;;-0.15;100.00;98148.41;5039683;28;19925;-83
2021/01/31 09:28:09;;;;;;;;;;;;;;;-0.10;100.00;98153.56;5056803;28;19925;-82
2021/01/31 09:30:37;;;;;;;;;;;;;;;-0.06;100.00;98159.88;5042219;28;19951;-83
2021/01/31 09:33:07;;;;;;;;;;;;;;;-0.01;100.00;98145.84;5023468;28;19968;-84
2021/01/31 09:35:35;;;;;;;;;;;;;;;0.03;100.00;98150.19;5073095;28;19932;-84
2021/01/31 09:38:08;;;;;;;;;;;;;;;0.02;100.00;98150.56;5056862;28;19948;-84
2021/01/31 09:40:35;;;;;;;;;;;;;;;-0.04;100.00;98146.59;5056244;28;20303;-83
2021/01/31 09:43:05;;;;;;;;;;;;;;;-0.01;100.00;98887.38;5056002;28;19925;-84
2021/01/31 09:45:35;;;;;;;;;;;;;;;0.03;100.00;98892.97;5023285;28;19967;-84
2021/01/31 09:48:05;;;;;;;;;;;;;;;0.03;100.00;98882.78;5056284;28;19932;-84
2021/01/31 09:50:31;;;;;;;;;;;;;;;0.02;100.00;98861.94;5039371;28;19925;-84
2021/01/31 09:52:58;;;;;;;;;;;;;;;0.07;100.00;98858.94;5055010;28;19925;-85
2021/01/31 09:55:26;;;;;;;;;;;;;;;0.10;100.00;98844.47;5034841;28;20027;-84
2021/01/31 09:57:53;;;;;;;;;;;;;;;0.16;100.00;98851.28;5086201;28;20550;-84
2021/01/31 10:00:27;;;;;;;;;;;;;;;0.12;100.00;98828.44;5053362;28;19932;-84
2021/01/31 10:03:20;;;;;;;;;;;;;;;0.19;100.00;98828.59;5036264;28;19928;-84
2021/01/31 10:05:46;;;;;;;;;;;;;;;0.16;100.00;98821.06;5035593;28;20429;-84
2021/01/31 10:08:15;;;;;;;;;;;;;;;0.11;100.00;98817.81;5052139;28;19995;-79
2021/01/31 10:10:42;;;;;;;;;;;;;;;0.09;100.00;98815.44;5087003;28;19925;-81
2021/01/31 10:13:14;;;;;;;;;;;;;;;0.06;100.00;98788.69;5053023;28;20021;-85
2021/01/31 10:15:41;;;;;;;;;;;;;;;0.12;100.00;98792.72;5055217;28;19960;-84
2021/01/31 10:18:11;;;;;;;;;;;;;;;0.12;100.00;98787.22;5072607;28;20327;-86
2021/01/31 10:20:39;;;;;;;;;;;;;;;0.15;100.00;98770.03;5053590;28;19932;-77
2021/01/31 10:23:05;;;;;;;;;;;;;;;0.17;100.00;98775.94;5056336;28;20078;-78
2021/01/31 10:25:33;;;;;;;;;;;;;;;0.17;100.00;98773.19;5055655;28;20275;-82
2021/01/31 10:28:00;;;;;;;;;;;;;;;0.20;100.00;98755.97;5038002;28;19929;-78
2021/01/31 10:30:36;;;;;;;;;;;;;;;0.19;100.00;98748.91;5055492;28;20338;-76
2021/01/31 10:33:03;;;;;;;;;;;;;;;0.17;100.00;98734.72;5056251;28;19968;-82
2021/01/31 10:35:32;;;;;;;;;;;;;;;0.18;100.00;98730.03;5056330;28;19925;-80
2021/01/31 10:38:00;;;;;;;;;;;;;;;0.17;100.00;98728.44;5056419;28;19925;-78
2021/01/31 10:40:27;;;;;;;;;;;;;;;0.19;100.00;98720.63;5055221;28;19947;-83
2021/01/31 10:43:10;;;;;;;;;;;;;;;0.20;100.00;98716.72;5056194;28;19924;-79
2021/01/31 10:45:38;;;;;;;;;;;;;;;0.23;100.00;98711.28;5056484;28;19932;-78
2021/01/31 10:48:04;;;;;;;;;;;;;;;0.28;100.00;98708.25;5055857;28;20590;-80
2021/01/31 10:50:31;;;;;;;;;;;;;;;0.29;100.00;98704.31;5038284;28;20327;-77
2021/01/31 10:52:57;;;;;;;;;;;;;;;0.30;100.00;98678.47;5055704;28;19978;-77
2021/01/31 10:55:24;;;;;;;;;;;;;;;0.32;100.00;98678.88;5054463;28;19925;-77
2021/01/31 10:57:50;;;;;;;;;;;;;;;0.34;100.00;98676.56;5055550;28;20323;-77
2021/01/31 11:00:17;;;;;;;;;;;;;;;0.37;100.00;98667.59;5055524;28;20470;-78
2021/01/31 11:02:44;;;;;;;;;;;;;;;0.39;100.00;98651.53;5055732;28;19963;-79
2021/01/31 11:05:15;;;;;;;;;;;;;;;0.42;100.00;98648.06;5047692;28;20368;-77
2021/01/31 11:07:42;;;;;;;;;;;;;;;0.41;100.00;98634.66;5055691;28;19925;-78
2021/01/31 11:10:10;;;;;;;;;;;;;;;0.45;100.00;98636.31;5055658;28;20398;-78
2021/01/31 11:12:36;;;;;;;;;;;;;;;0.49;100.00;98620.66;5037704;28;20619;-78
2021/01/31 11:15:04;;;;;;;;;;;;;;;0.56;100.00;98612.53;5055820;28;20537;-77
2021/01/31 11:17:31;;;;;;;;;;;;;;;0.53;100.00;98594.03;5037449;28;19924;-79
2021/01/31 11:19:57;;;;;;;;;;;;;;;0.52;100.00;98584.19;5087894;28;19924;-80
2021/01/31 11:22:24;;;;;;;;;;;;;;;0.55;100.00;98569.72;5055357;28;20384;-80
2021/01/31 11:24:51;;;;;;;;;;;;;;;0.60;100.00;98561.16;5055250;28;19997;-79
2021/01/31 11:27:17;;;;;;;;;;;;;;;0.56;100.00;98530.06;5055197;28;20059;-78
2021/01/31 11:29:44;;;;;;;;;;;;;;;0.59;100.00;98481.81;5055727;28;19932;-81
2021/01/31 11:32:10;;;;;;;;;;;;;;;0.55;100.00;98470.75;5054821;28;19924;-81
2021/01/31 11:34:37;;;;;;;;;;;;;;;0.64;100.00;98443.78;5087570;28;19932;-81
2021/01/31 11:37:04;;;;;;;;;;;;;;;0.55;100.00;98431.47;5055680;28;19968;-80
2021/01/31 11:39:37;;;;;;;;;;;;;;;0.61;100.00;98425.28;5071434;28;19956;-77
2021/01/31 11:42:04;;;;;;;;;;;;;;;0.59;100.00;98416.59;5087341;28;19931;-81
2021/01/31 11:44:31;;;;;;;;;;;;;;;0.54;100.00;98391.41;5055264;28;19971;-77
2021/01/31 11:46:57;;;;;;;;;;;;;;;0.53;100.00;98374.09;5037230;28;20377;-76
2021/01/31 11:49:24;;;;;;;;;;;;;;;0.60;100.00;98374.22;5087128;28;19986;-76
2021/01/31 11:51:51;;;;;;;;;;;;;;;0.55;100.00;98346.25;5054787;28;19925;-77
2021/01/31 11:54:18;;;;;;;;;;;;;;;0.60;100.00;98335.72;5054660;28;19932;-76
2021/01/31 11:56:44;;;;;;;;;;;;;;;0.59;100.00;98323.13;5054512;28;19931;-76
2021/01/31 11:59:11;;;;;;;;;;;;;;;0.58;100.00;98294.06;5054504;28;20364;-77
2021/01/31 12:01:38;;;;;;;;;;;;;;;0.58;100.00;98280.31;5054428;28;19929;-77
2021/01/31 12:04:05;;;;;;;;;;;;;;;0.60;100.00;98268.94;5053244;28;20016;-75
2021/01/31 12:06:32;;;;;;;;;;;;;;;0.66;100.00;98261.94;5054392;28;19978;-76
2021/01/31 12:08:58;;;;;;;;;;;;;;;0.58;100.00;98247.34;5054447;28;19925;-77
2021/01/31 12:11:25;;;;;;;;;;;;;;;0.59;100.00;98223.41;5054153;28;19932;-77
2021/01/31 12:13:51;;;;;;;;;;;;;;;0.58;100.00;98214.34;5053959;28;19928;-77
2021/01/31 12:16:18;;;;;;;;;;;;;;;0.56;100.00;98196.66;5054036;28;19968;-77
2021/01/31 12:18:46;;;;;;;;;;;;;;;0.51;100.00;98186.81;5053637;28;20196;-79
2021/01/31 12:21:13;;;;;;;;;;;;;;;0.59;100.00;98176.66;5054216;28;20328;-78
2021/01/31 12:23:39;;;;;;;;;;;;;;;0.62;100.00;98157.44;5036264;28;20272;-76
2021/01/31 12:26:06;;;;;;;;;;;;;;;0.60;100.00;98140.53;5054115;28;20047;-78
2021/01/31 12:28:33;;;;;;;;;;;;;;;0.63;100.00;98134.28;5054216;28;19978;-77
2021/01/31 12:30:59;;;;;;;;;;;;;;;0.59;100.00;97954.00;5053810;28;20391;-78
2021/01/31 12:33:26;;;;;;;;;;;;;;;0.58;100.00;97925.72;5053093;28;19935;-77
2021/01/31 12:35:55;;;;;;;;;;;;;;;0.55;100.00;97920.19;5052451;28;19944;-77
2021/01/31 12:38:22;;;;;;;;;;;;;;;0.52;100.00;97902.53;5054071;28;20024;-78
2021/01/31 12:40:48;;;;;;;;;;;;;;;0.60;100.00;97879.41;5053925;28;20019;-78
2021/01/31 12:43:15;;;;;;;;;;;;;;;0.62;100.00;97849.56;5086160;28;19969;-78
2021/01/31 12:45:41;;;;;;;;;;;;;;;0.57;100.00;97814.22;5053694;28;20059;-78
2021/01/31 12:48:08;;;;;;;;;;;;;;;0.64;100.00;97797.72;5052872;28;19978;-79
2021/01/31 12:50:43;;;;;;;;;;;;;;;0.64;100.00;97530.31;5054150;28;19932;-80
2021/01/31 12:53:10;;;;;;;;;;;;;;;0.66;100.00;97512.28;5068683;28;19956;-83
2021/01/31 12:55:40;;;;;;;;;;;;;;;0.66;100.00;97493.03;5036732;28;20015;-82
2021/01/31 12:58:07;;;;;;;;;;;;;;;0.70;100.00;97488.28;5036309;28;19931;-83
2021/01/31 13:00:34;;;;;;;;;;;;;;;0.65;100.00;97491.44;5036127;28;19932;-82